• Join FlightAware (Why Join?)
  • Login
  • US Flag 
08:12AM EDT


 

Airport Tracker/Info


-or-


 

Live Flight TrackerFlight Track Log ✈ FLG4099 ✈ 13-May-2013 ✈ KBTV - KDTW

Flight Track Log - Related Links

Times and Time Zones

All times are in EDT time to prevent confusion due to time zone crossing. See the FLG4099 flight status page for this flight to view local times or setup timezone preferences in your user account.

Time Position Orientation Groundspeed Altitude Reporting Facility
EDT Latitude Longitude Course Direction KTS MPH feet Rate Location/Type
06:21AM 44.3767 -73.6535 253° West  Level FlightAware Approximate
06:21AM 44.3914 -73.3233 255° West 248 285 9,200  Level Boston Center
06:22AM 44.3553 -73.7798 259° West  Level FlightAware Approximate
06:22AM 44.3758 -73.4275 258° West 267 307 10,600  Level Boston Center
06:23AM 44.3371 -73.9072 259° West  Level FlightAware Approximate
06:23AM 44.3581 -73.5406 258° West 297 342 13,300  Level Boston Center
06:24AM 44.3150 -74.0333 256° West  Level FlightAware Approximate
06:24AM 44.3425 -73.6506 259° West 297 342 15,800  Level Boston Center
06:25AM 44.2918 -74.1590 256° West  Level FlightAware Approximate
06:25AM 44.3267 -73.7606 259° West 303 349 17,500  Level Boston Center
06:26AM 44.2685 -74.2846 255° West  Level FlightAware Approximate
06:26AM 44.3086 -73.8792 258° West 308 354 19,700  Level Boston Center
06:27AM 44.2903 -74.0003 258° West 318 366 21,700 1,980 Climbing Boston Center
06:28AM 44.2700 -74.1189 257° West 318 366 23,700 1,680 Climbing Boston Center
06:29AM 44.2536 -74.2400 259° West 318 366 25,100 1,200 Climbing Boston Center
06:30AM 44.2328 -74.3639 257° West 318 366 26,100 960 Climbing Boston Center
06:31AM 44.2139 -74.4908 258° West 329 379 27,100 960 Climbing Boston Center
06:32AM 44.1928 -74.6147 257° West 334 384 28,100 960 Climbing Boston Center
06:33AM 44.1758 -74.7442 260° West 334 384 29,100 900 Climbing Boston Center
06:34AM 44.1544 -74.8678 256° West 334 384 30,000 420 Climbing Boston Center
06:35AM 44.1328 -75.0000 257° West 334 384 30,000  Level Boston Center
06:36AM 44.1089 -75.1322 256° West 344 396 30,000  Level Boston Center
06:37AM 44.0869 -75.2700 258° West 357 411 30,000  Level Boston Center
06:38AM 44.0572 -75.4475 257° West 378 435 30,000  Level Boston Center
06:39AM 44.0347 -75.5939 258° West 391 450 30,000  Level Boston Center
06:40AM 44.0097 -75.7428 257° West 391 450 30,000  Level Boston Center
06:41AM 43.9844 -75.8914 257° West 391 450 30,000  Level Boston Center
06:42AM 43.9589 -76.0456 257° West 397 457 30,000  Level Boston Center
06:43AM 43.9519 -76.1981 266° West 397 457 30,000  Level Boston Center
06:44AM 43.9467 -76.3564 267° West 409 471 30,000  Level Boston Center
06:45AM 43.9433 -76.5119 268° West 409 471 30,000  Level Boston Center
06:46AM 43.9394 -76.6706 268° West 409 471 30,000  Level Boston Center
06:46AM 43.9333 -76.7167 260° West 410 472 30,000  Level Toronto Center
06:47AM 43.9167 -76.8833 262° West 410 472 30,000  Level Toronto Center
06:48AM 43.9167 -77.0333 270° West 410 472 30,000  Level Toronto Center
06:49AM 43.9000 -77.2000 262° West 410 472 30,000  Level Toronto Center
06:50AM 43.8833 -77.3667 262° West 420 483 30,000  Level Toronto Center
06:51AM 43.8667 -77.5333 262° West 420 483 30,000  Level Toronto Center
06:52AM 43.8500 -77.6667 260° West 420 483 30,000  Level Toronto Center
06:53AM 43.8167 -77.8333 255° West 420 483 30,000  Level Toronto Center
06:54AM 43.7833 -78.0000 255° West 420 483 30,000  Level Toronto Center
06:55AM 43.7667 -78.1500 261° West 420 483 30,000  Level Toronto Center
06:56AM 43.7333 -78.3167 255° West 430 495 30,000  Level Toronto Center
06:57AM 43.7000 -78.4833 255° West 430 495 30,000  Level Toronto Center
06:58AM 43.7000 -78.6167 270° West 430 495 30,000  Level Toronto Center
06:59AM 43.6500 -78.7833 248° West 430 495 30,000  Level Toronto Center
07:00AM 43.5833 -78.9167 235° Southwest 440 506 30,000  Level Toronto Center
07:01AM 43.5167 -79.0833 241° Southwest 440 506 30,000  Level Toronto Center
07:02AM 43.4500 -79.2167 235° Southwest 440 506 30,000  Level Toronto Center
07:03AM 43.4000 -79.3500 243° Southwest 440 506 30,000 -60 Level Toronto Center
07:04AM 43.3167 -79.5000 233° Southwest 440 506 29,900 -600 Descending Toronto Center
07:05AM 43.2667 -79.6333 243° Southwest 440 506 28,900 -1,020 Descending Toronto Center
07:07AM 43.1503 -79.9344 242° Southwest 443 510 27,000 -1,020 Descending Cleveland Center
07:08AM 43.0822 -80.0744 236° Southwest 454 522 26,000 -1,020 Descending Cleveland Center
07:09AM 43.0181 -80.2169 238° Southwest 449 517 25,000 -1,020 Descending Cleveland Center
07:10AM 42.9519 -80.3564 237° Southwest 449 517 24,000 -1,020 Descending Cleveland Center
07:11AM 42.8894 -80.5011 240° Southwest 449 517 23,000 -540 Descending Cleveland Center
07:12AM 42.8167 -80.6333 233° Southwest 420 483 23,000  Level Toronto Center
07:13AM 42.7500 -80.7500 232° Southwest 410 472 23,000  Level Toronto Center
07:14AM 42.6833 -80.8833 236° Southwest 400 460 23,000  Level Toronto Center
07:15AM 42.6667 -81.0333 261° West 400 460 23,000  Level Toronto Center
07:16AM 42.6500 -81.2000 262° West 400 460 23,000 -300 Level Toronto Center
07:17AM 42.6333 -81.3333 260° West 400 460 22,500 -540 Descending Toronto Center
07:18AM 42.6167 -81.4667 260° West 390 449 22,000 -360 Descending Toronto Center
07:19AM 42.6167 -81.6333 270° West 380 437 21,800 -540 Descending Toronto Center
07:20AM 42.6042 -81.7708 263° West 380 437 21,000 -900 Descending Cleveland Center
07:21AM 42.6300 -81.8897 286° West 338 389 20,000 -1,020 Descending Cleveland Center
07:22AM 42.6725 -81.9950 299° West 327 376 19,000 -780 Descending Cleveland Center
07:23AM 42.7150 -82.0978 299° West 316 364 18,500 -660 Descending Cleveland Center
07:24AM 42.7575 -82.1894 302° West 304 350 17,700 -900 Descending Cleveland Center
07:25AM 42.7978 -82.2894 299° West 299 344 16,700 -1,080 Descending Cleveland Center
07:26AM 42.7989 -82.3431 272° West 302 348 16,100 -1,140 Descending Cleveland Center
07:26AM 42.7794 -82.3908 241° Southwest 281 323 15,600 -2,040 Descending Cleveland Center
07:27AM 42.6933 -82.4419 204° Southwest 248 285 13,100 -2,280 Descending Cleveland Center
07:28AM 42.6133 -82.4875 203° Southwest 278 320 11,100 -1,200 Descending Cleveland Center
07:29AM 42.5394 -82.5303 203° Southwest 289 333 10,800 -900 Descending Cleveland Center
07:30AM 42.4861 -82.6019 225° Southwest 274 315 9,300 -1,440 Descending Cleveland Center
07:31AM 42.4453 -82.6794 234° Southwest 274 315 8,000 -840 Descending Cleveland Center
07:32AM 42.3983 -82.7397 223° Southwest 250 288 7,700 -840 Descending Cleveland Center
07:33AM 42.3883 -82.8181 260° West 212 244 6,400 -900 Descending Cleveland Center
07:34AM 42.3722 -82.8964 254° West 217 250 6,000 -240 Descending Cleveland Center
07:35AM 42.3583 -82.9744 256° West 217 250 6,000  Level Cleveland Center
07:36AM 42.3556 -82.9967 260° West 213 245 6,000  Level Cleveland Center
07:36AM 42.3606 -83.0617 276° West 188 216 6,000 -300 Level Cleveland Center
07:38AM 42.3611 -83.1264 271° West 167 192 5,500 -480 Descending Cleveland Center
07:39AM 42.3450 -83.1958 253° West 167 192 5,000 -840 Descending Cleveland Center
07:39AM 42.3211 -83.2425 235° Southwest 169 194 4,000 -1,140 Descending Cleveland Center